createdAt,value
2019-04-14T00:01:59.292Z,32.93
2019-04-14T00:04:36.162Z,36.37
2019-04-14T00:07:08.057Z,32.63
2019-04-14T00:09:40.141Z,29.33
2019-04-14T00:12:12.907Z,32.60
2019-04-14T00:14:44.800Z,32.17
2019-04-14T00:17:17.284Z,30.20
2019-04-14T00:19:50.218Z,31.53
2019-04-14T00:22:22.701Z,31.20
2019-04-14T00:24:55.382Z,29.43
2019-04-14T00:27:28.133Z,34.30
2019-04-14T00:30:01.132Z,29.73
2019-04-14T00:32:35.501Z,33.90
2019-04-14T00:35:27.725Z,31.83
2019-04-14T00:38:17.896Z,33.23
2019-04-14T00:41:05.228Z,27.70
2019-04-14T00:43:57.012Z,31.97
2019-04-14T00:46:36.816Z,32.63
2019-04-14T00:49:09.561Z,29.87
2019-04-14T00:51:42.406Z,30.93
2019-04-14T00:54:16.102Z,30.90
2019-04-14T00:56:48.438Z,29.90
2019-04-14T00:59:20.282Z,30.37
2019-04-14T01:01:52.741Z,30.57
2019-04-14T01:04:27.242Z,31.90
2019-04-14T01:07:00.123Z,31.73
2019-04-14T01:09:32.699Z,31.43
2019-04-14T01:12:04.596Z,31.13
2019-04-14T01:14:36.610Z,29.47
2019-04-14T01:17:09.054Z,28.00
2019-04-14T01:19:41.693Z,31.20
2019-04-14T01:22:14.174Z,29.13
2019-04-14T01:24:46.845Z,32.27
2019-04-14T01:27:19.327Z,31.90
2019-04-14T01:29:51.609Z,29.33
2019-04-14T01:32:24.115Z,30.93
2019-04-14T01:34:56.925Z,30.30
2019-04-14T01:37:29.153Z,29.50
2019-04-14T01:40:03.300Z,28.57
2019-04-14T01:42:35.533Z,29.47
2019-04-14T01:45:10.441Z,31.33
2019-04-14T01:47:42.866Z,30.43
2019-04-14T01:50:15.280Z,31.30
2019-04-14T01:53:05.315Z,31.43
2019-04-14T01:56:12.365Z,32.47
2019-04-14T01:58:49.130Z,33.57
2019-04-14T02:01:26.036Z,33.37
2019-04-14T02:03:58.462Z,32.13
2019-04-14T02:06:31.257Z,32.10
2019-04-14T02:09:07.471Z,30.83
2019-04-14T02:11:39.904Z,31.77
2019-04-14T02:14:12.998Z,31.27
2019-04-14T02:16:50.367Z,29.83
2019-04-14T02:19:19.888Z,30.13
2019-04-14T02:21:52.334Z,30.70
2019-04-14T02:24:24.251Z,31.30
2019-04-14T02:26:56.976Z,31.00
2019-04-14T02:29:29.751Z,29.87
2019-04-14T02:32:43.393Z,35.20
2019-04-14T02:35:02.966Z,30.33
2019-04-14T02:37:38.143Z,31.80
2019-04-14T02:40:08.745Z,29.23
2019-04-14T02:42:39.863Z,31.17
2019-04-14T02:45:19.531Z,33.27
2019-04-14T02:50:24.441Z,31.90
2019-04-14T02:53:01.592Z,29.07
2019-04-14T02:55:29.899Z,30.23
2019-04-14T03:00:42.080Z,30.43
2019-04-14T03:03:16.894Z,29.87
2019-04-14T03:10:57.589Z,31.43
2019-04-14T03:13:28.802Z,29.53
2019-04-14T03:16:09.703Z,35.20
2019-04-14T03:18:52.665Z,34.80
2019-04-14T03:21:48.801Z,32.70
2019-04-14T03:24:27.499Z,30.83
2019-04-14T03:27:22.799Z,30.97
2019-04-14T03:29:59.949Z,30.57
2019-04-14T03:32:52.799Z,34.30
2019-04-14T03:35:35.528Z,34.10
2019-04-14T03:40:21.657Z,31.80
2019-04-14T03:45:30.010Z,34.23
2019-04-14T03:48:31.758Z,33.87
2019-04-14T03:50:30.785Z,36.13
2019-04-14T03:53:05.859Z,32.47
2019-04-14T03:55:41.429Z,35.63
2019-04-14T03:58:05.941Z,35.63
2019-04-14T04:00:37.941Z,34.97
2019-04-14T04:03:10.647Z,34.23
2019-04-14T04:05:43.479Z,35.63
2019-04-14T04:08:16.050Z,35.57
2019-04-14T04:10:48.693Z,37.97
2019-04-14T04:13:21.575Z,35.87
2019-04-14T04:15:56.114Z,39.33
2019-04-14T04:18:28.800Z,37.23
2019-04-14T04:21:18.693Z,34.93
2019-04-14T04:24:10.443Z,36.37
2019-04-14T04:26:54.363Z,36.80
2019-04-14T04:29:42.634Z,37.07
2019-04-14T04:32:25.712Z,35.97
2019-04-14T04:35:10.935Z,37.97
2019-04-14T04:37:56.356Z,36.93
2019-04-14T04:40:31.219Z,36.57
2019-04-14T04:43:03.829Z,38.10
2019-04-14T04:45:36.579Z,36.60
2019-04-14T04:48:08.915Z,41.30
2019-04-14T04:50:47.642Z,42.07
2019-04-14T04:53:22.324Z,38.40
2019-04-14T04:55:54.702Z,36.80
2019-04-14T04:58:26.586Z,38.80
2019-04-14T05:00:59.592Z,41.63
2019-04-14T05:03:32.106Z,36.90
2019-04-14T05:06:13.323Z,39.53
2019-04-14T05:08:50.382Z,38.33
2019-04-14T05:11:31.703Z,39.63
2019-04-14T05:14:09.342Z,40.80
2019-04-14T05:16:41.830Z,34.93
2019-04-14T05:19:23.249Z,37.90
2019-04-14T05:21:47.862Z,38.90
2019-04-14T05:24:20.019Z,36.70
2019-04-14T05:26:52.712Z,40.67
2019-04-14T05:29:25.393Z,42.40
2019-04-14T05:31:57.669Z,37.87
2019-04-14T05:34:30.452Z,35.73
2019-04-14T05:37:02.899Z,37.77
2019-04-14T05:39:40.065Z,37.60
2019-04-14T05:42:18.013Z,36.90
2019-04-14T05:45:02.491Z,35.57
2019-04-14T05:47:35.009Z,39.27
2019-04-14T05:50:07.635Z,36.07
2019-04-14T05:52:40.485Z,33.53
2019-04-14T05:55:13.509Z,35.13
2019-04-14T05:57:46.036Z,35.07
2019-04-14T06:00:19.631Z,34.83
2019-04-14T06:02:55.195Z,36.43
2019-04-14T06:05:27.851Z,36.63
2019-04-14T06:08:00.218Z,36.40
2019-04-14T06:10:32.424Z,36.00
2019-04-14T06:13:11.799Z,35.10
2019-04-14T06:15:44.046Z,37.10
2019-04-14T06:18:17.157Z,37.77
2019-04-14T06:20:49.514Z,34.10
2019-04-14T06:23:21.409Z,35.17
2019-04-14T06:25:53.309Z,35.40
2019-04-14T06:28:34.731Z,36.87
2019-04-14T06:31:25.443Z,36.10
2019-04-14T06:34:07.862Z,38.13
2019-04-14T06:37:11.313Z,35.97
2019-04-14T06:39:46.957Z,35.67
2019-04-14T06:42:19.513Z,38.50
2019-04-14T06:44:51.438Z,36.40
2019-04-14T06:47:25.097Z,33.33
2019-04-14T06:50:08.657Z,35.40
2019-04-14T06:52:40.604Z,34.20
2019-04-14T06:55:13.605Z,37.57
2019-04-14T06:57:46.020Z,32.03
2019-04-14T07:00:17.959Z,34.57
2019-04-14T07:02:50.134Z,33.27
2019-04-14T07:05:22.534Z,34.77
2019-04-14T07:07:57.297Z,35.10
2019-04-14T07:10:28.527Z,32.80
2019-04-14T07:13:01.251Z,33.53
2019-04-14T07:15:33.581Z,34.27
2019-04-14T07:18:05.520Z,35.33
2019-04-14T07:20:38.693Z,34.23
2019-04-14T07:23:11.468Z,32.73
2019-04-14T07:25:43.350Z,33.53
2019-04-14T07:28:15.950Z,32.77
2019-04-14T07:31:06.693Z,31.93
2019-04-14T07:33:56.036Z,35.13
2019-04-14T07:36:46.592Z,34.67
2019-04-14T07:39:56.395Z,35.33
2019-04-14T07:42:47.154Z,32.07
2019-04-14T07:45:46.143Z,33.37
2019-04-14T07:48:52.859Z,33.00
2019-04-14T07:51:49.978Z,29.67
2019-04-14T07:54:29.722Z,30.93
2019-04-14T07:57:26.864Z,31.03
2019-04-14T08:00:24.333Z,27.93
2019-04-14T08:03:00.994Z,30.50
2019-04-14T08:05:36.108Z,25.50
2019-04-14T08:08:08.534Z,25.57
2019-04-14T08:10:41.039Z,26.13
2019-04-14T08:13:13.443Z,30.57
2019-04-14T08:15:45.981Z,24.13
2019-04-14T08:18:19.682Z,25.60
2019-04-14T08:20:52.210Z,25.50
2019-04-14T08:23:24.711Z,25.63
2019-04-14T08:25:57.207Z,23.83
2019-04-14T08:28:29.660Z,25.27
2019-04-14T08:31:02.110Z,24.33
2019-04-14T08:33:35.067Z,25.50
2019-04-14T08:36:07.019Z,22.93
2019-04-14T08:38:38.813Z,26.57
2019-04-14T08:41:11.687Z,29.37
2019-04-14T08:44:08.558Z,25.80
2019-04-14T08:47:05.570Z,24.00
2019-04-14T08:49:55.478Z,24.63
2019-04-14T08:52:49.826Z,25.17
2019-04-14T08:55:52.584Z,23.60
2019-04-14T08:58:33.250Z,25.67
2019-04-14T09:01:24.163Z,22.23
2019-04-14T09:04:01.194Z,23.23
2019-04-14T09:06:50.669Z,23.97
2019-04-14T09:09:26.831Z,26.03
2019-04-14T09:12:14.894Z,24.37
2019-04-14T09:14:38.660Z,26.97
2019-04-14T09:17:10.560Z,22.03
2019-04-14T09:19:42.953Z,20.83
2019-04-14T09:22:15.253Z,22.30
2019-04-14T09:24:47.048Z,22.57
2019-04-14T09:27:18.994Z,23.77
2019-04-14T09:29:52.571Z,23.83
2019-04-14T09:32:25.580Z,24.23
2019-04-14T09:34:58.045Z,23.27
2019-04-14T09:37:31.898Z,22.47
2019-04-14T09:40:03.711Z,20.67
2019-04-14T09:42:35.973Z,22.77
2019-04-14T09:45:07.971Z,22.30
2019-04-14T09:47:40.184Z,20.90
2019-04-14T09:50:12.374Z,25.20
2019-04-14T09:52:44.191Z,26.60
2019-04-14T09:55:16.101Z,26.47
2019-04-14T09:57:48.017Z,29.40
2019-04-14T10:00:22.532Z,30.73
2019-04-14T10:02:55.386Z,24.10
2019-04-14T10:05:27.724Z,24.37
2019-04-14T10:07:59.561Z,25.93
2019-04-14T10:10:31.481Z,24.80
2019-04-14T10:13:05.384Z,27.57
2019-04-14T10:15:38.290Z,24.93
2019-04-14T10:18:13.480Z,27.57
2019-04-14T10:20:45.388Z,27.93
2019-04-14T10:23:17.281Z,27.37
2019-04-14T10:25:49.192Z,28.43
2019-04-14T10:28:21.080Z,25.23
2019-04-14T10:30:52.980Z,26.77
2019-04-14T10:33:25.357Z,27.40
2019-04-14T10:35:58.200Z,25.83
2019-04-14T10:38:31.138Z,25.00
2019-04-14T10:41:03.049Z,27.10
2019-04-14T10:43:34.950Z,26.07
2019-04-14T10:46:07.459Z,26.07
2019-04-14T10:48:39.403Z,25.43
2019-04-14T10:51:11.759Z,25.40
2019-04-14T10:53:44.580Z,23.67
2019-04-14T10:56:17.344Z,24.13
2019-04-14T10:58:49.644Z,25.90
2019-04-14T11:01:22.976Z,22.20
2019-04-14T11:03:56.298Z,21.90
2019-04-14T11:06:41.559Z,21.07
2019-04-14T11:09:15.284Z,24.40
2019-04-14T11:11:48.054Z,24.33
2019-04-14T11:14:19.939Z,22.43
2019-04-14T11:16:51.876Z,22.50
2019-04-14T11:19:24.226Z,22.03
2019-04-14T11:21:56.079Z,19.93
2019-04-14T11:24:28.261Z,21.37
2019-04-14T11:27:00.779Z,23.23
2019-04-14T11:29:33.559Z,20.23
2019-04-14T11:32:23.422Z,24.27
2019-04-14T11:35:17.344Z,24.63
2019-04-14T11:38:06.869Z,24.77
2019-04-14T11:40:42.618Z,30.67
2019-04-14T11:43:15.318Z,38.77
2019-04-14T11:45:47.163Z,31.90
2019-04-14T11:48:20.074Z,23.13
2019-04-14T11:50:52.536Z,24.43
2019-04-14T11:53:31.458Z,22.20
2019-04-14T11:56:04.049Z,22.60
2019-04-14T11:58:37.002Z,22.47
2019-04-14T12:01:24.694Z,22.23
2019-04-14T12:04:15.424Z,22.33
2019-04-14T12:07:17.351Z,19.47
2019-04-14T12:10:17.272Z,21.03
2019-04-14T12:12:50.162Z,22.20
2019-04-14T12:15:26.846Z,21.43
2019-04-14T12:17:58.730Z,22.63
2019-04-14T12:20:31.080Z,22.63
2019-04-14T12:23:02.969Z,19.77
2019-04-14T12:25:35.422Z,18.77
2019-04-14T12:28:09.259Z,20.93
2019-04-14T12:30:41.993Z,18.60
2019-04-14T12:33:14.843Z,16.80
2019-04-14T12:35:46.734Z,17.87
2019-04-14T12:38:19.215Z,19.93
2019-04-14T12:40:52.454Z,18.67
2019-04-14T12:43:41.035Z,18.20
2019-04-14T12:46:23.306Z,17.60
2019-04-14T12:49:20.465Z,16.37
2019-04-14T12:52:20.594Z,19.20
2019-04-14T12:54:43.963Z,17.80
2019-04-14T12:57:17.445Z,17.70
2019-04-14T12:59:50.930Z,16.90
2019-04-14T13:02:25.404Z,18.40
2019-04-14T13:04:57.681Z,17.13
2019-04-14T13:07:29.553Z,16.57
2019-04-14T13:10:07.918Z,15.87
2019-04-14T13:12:39.919Z,17.33
2019-04-14T13:15:11.960Z,15.93
2019-04-14T13:17:44.398Z,14.17
2019-04-14T13:20:16.731Z,14.50
2019-04-14T13:22:52.516Z,14.43
2019-04-14T13:25:31.689Z,14.67
2019-04-14T13:28:06.283Z,21.00
2019-04-14T13:30:41.868Z,14.63
2019-04-14T13:33:14.177Z,12.00
2019-04-14T13:35:46.038Z,12.70
2019-04-14T13:38:19.657Z,11.77
2019-04-14T13:40:52.332Z,10.60
2019-04-14T13:43:28.412Z,11.47
2019-04-14T13:46:01.616Z,10.27
2019-04-14T13:48:33.979Z,11.23
2019-04-14T13:51:06.618Z,11.13
2019-04-14T13:53:40.539Z,9.97
2019-04-14T13:56:24.439Z,8.73
2019-04-14T13:58:57.355Z,7.93
2019-04-14T14:01:29.321Z,8.03
2019-04-14T14:04:01.738Z,10.63
2019-04-14T14:06:33.656Z,8.67
2019-04-14T14:09:12.496Z,6.70
2019-04-14T14:12:07.798Z,8.10
2019-04-14T14:15:11.926Z,6.90
2019-04-14T14:18:05.330Z,9.40
2019-04-14T14:20:55.375Z,7.13
2019-04-14T14:23:32.449Z,7.13
2019-04-14T14:26:07.866Z,7.97
2019-04-14T14:28:39.936Z,7.77
2019-04-14T14:31:13.760Z,8.27
2019-04-14T14:33:45.768Z,7.07
2019-04-14T14:36:17.747Z,7.57
2019-04-14T14:38:50.731Z,7.00
2019-04-14T14:41:22.855Z,6.60
2019-04-14T14:43:54.830Z,7.47
2019-04-14T14:46:39.004Z,7.07
2019-04-14T14:49:22.710Z,7.27
2019-04-14T14:52:05.634Z,6.10
2019-04-14T14:54:37.554Z,6.77
2019-04-14T14:57:09.430Z,6.43
2019-04-14T14:59:41.983Z,6.40
2019-04-14T15:02:13.928Z,7.20
2019-04-14T15:04:45.906Z,6.90
2019-04-14T15:07:18.411Z,5.83
2019-04-14T15:09:50.299Z,6.20
2019-04-14T15:12:22.168Z,7.80
2019-04-14T15:14:55.926Z,7.60
2019-04-14T15:17:27.957Z,7.60
2019-04-14T15:20:00.334Z,7.73
2019-04-14T15:22:32.703Z,5.90
2019-04-14T15:25:04.699Z,5.67
2019-04-14T15:27:37.283Z,5.70
2019-04-14T15:30:14.532Z,6.00
2019-04-14T15:32:47.214Z,7.03
2019-04-14T15:35:19.774Z,6.33
2019-04-14T15:37:51.709Z,7.20
2019-04-14T15:40:24.250Z,6.83
2019-04-14T15:42:56.593Z,7.53
2019-04-14T15:45:47.628Z,6.10
2019-04-14T15:48:38.763Z,7.00
2019-04-14T15:51:29.127Z,6.57
2019-04-14T15:54:18.712Z,6.90
2019-04-14T15:57:33.193Z,7.43
2019-04-14T16:00:41.309Z,8.37
2019-04-14T16:03:53.005Z,7.40
2019-04-14T16:06:50.452Z,8.90
2019-04-14T16:10:02.430Z,7.67
2019-04-14T16:13:10.983Z,9.27
2019-04-14T16:15:49.904Z,8.07
2019-04-14T16:18:40.623Z,8.57
2019-04-14T16:21:13.188Z,9.90
2019-04-14T16:23:50.843Z,8.97
2019-04-14T16:26:47.281Z,9.73
2019-04-14T16:29:29.568Z,8.73
2019-04-14T16:32:39.168Z,8.50
2019-04-14T16:35:15.341Z,9.23
2019-04-14T16:37:48.212Z,11.17
2019-04-14T16:40:20.188Z,11.37
2019-04-14T16:42:53.630Z,11.23
2019-04-14T16:45:26.015Z,10.13
2019-04-14T16:47:58.134Z,9.53
2019-04-14T16:50:30.045Z,10.03
2019-04-14T16:53:27.302Z,9.53
2019-04-14T16:56:21.512Z,10.57
2019-04-14T16:59:14.559Z,10.57
2019-04-14T17:02:10.689Z,11.03
2019-04-14T17:04:43.901Z,11.00
2019-04-14T17:07:17.543Z,8.87
2019-04-14T17:09:49.814Z,9.30
2019-04-14T17:12:25.170Z,9.77
2019-04-14T17:15:03.215Z,10.63
2019-04-14T17:17:56.517Z,9.87
2019-04-14T17:21:05.739Z,10.47
2019-04-14T17:23:43.290Z,9.67
2019-04-14T17:26:41.550Z,11.40
2019-04-14T17:29:37.652Z,9.70
2019-04-14T17:32:46.985Z,11.27
2019-04-14T17:35:49.265Z,11.27
2019-04-14T17:38:46.319Z,10.77
2019-04-14T17:41:34.704Z,12.80
2019-04-14T17:44:11.075Z,12.40
2019-04-14T17:47:02.460Z,11.33
2019-04-14T17:49:47.062Z,10.33
2019-04-14T17:52:38.428Z,9.80
2019-04-14T17:55:23.239Z,9.70
2019-04-14T17:58:14.415Z,11.37
2019-04-14T18:01:05.433Z,9.90
2019-04-14T18:03:54.427Z,11.17
2019-04-14T18:06:54.722Z,12.40
2019-04-14T18:09:38.899Z,11.07
2019-04-14T18:12:23.265Z,10.63
2019-04-14T18:15:26.363Z,10.23
2019-04-14T18:18:16.144Z,10.23
2019-04-14T18:20:54.192Z,9.60
2019-04-14T18:23:26.693Z,11.30
2019-04-14T18:25:58.693Z,11.13
2019-04-14T18:28:49.489Z,10.93
2019-04-14T18:31:29.169Z,8.80
2019-04-14T18:34:19.235Z,10.50
2019-04-14T18:36:56.569Z,11.17
2019-04-14T18:39:49.498Z,10.27
2019-04-14T18:42:41.798Z,11.20
2019-04-14T18:45:52.597Z,10.40
2019-04-14T18:48:58.431Z,10.10
2019-04-14T18:51:47.631Z,10.60
2019-04-14T18:54:33.596Z,10.47
2019-04-14T18:57:20.532Z,10.40
2019-04-14T18:59:57.281Z,10.97
2019-04-14T19:02:29.167Z,12.27
2019-04-14T19:05:01.909Z,10.90
2019-04-14T19:07:34.296Z,9.47
2019-04-14T19:10:11.966Z,10.33
2019-04-14T19:13:01.387Z,10.40
2019-04-14T19:15:52.787Z,10.27
2019-04-14T19:18:28.684Z,9.83
2019-04-14T19:21:04.219Z,10.10
2019-04-14T19:23:36.782Z,10.63
2019-04-14T19:26:14.506Z,13.30
2019-04-14T19:28:47.016Z,11.57
2019-04-14T19:31:18.918Z,10.37
2019-04-14T19:33:50.827Z,14.30
2019-04-14T19:36:23.239Z,11.20
2019-04-14T19:38:55.858Z,11.77
2019-04-14T19:41:27.688Z,9.93
2019-04-14T19:44:08.615Z,10.90
2019-04-14T19:46:40.762Z,10.97
2019-04-14T19:49:13.139Z,10.63
2019-04-14T19:51:46.040Z,10.33
2019-04-14T19:54:18.462Z,11.37
2019-04-14T19:56:51.307Z,11.73
2019-04-14T19:59:23.201Z,10.50
2019-04-14T20:01:56.123Z,10.53
2019-04-14T20:04:28.086Z,12.27
2019-04-14T20:07:00.540Z,12.87
2019-04-14T20:09:33.489Z,12.37
2019-04-14T20:12:05.965Z,11.80
2019-04-14T20:14:37.887Z,12.23
2019-04-14T20:17:28.609Z,11.93
2019-04-14T20:20:21.666Z,11.93
2019-04-14T20:23:21.710Z,10.60
2019-04-14T20:26:11.851Z,13.20
2019-04-14T20:28:51.414Z,13.60
2019-04-14T20:31:41.002Z,11.60
2019-04-14T20:34:13.803Z,12.97
2019-04-14T20:36:46.640Z,12.37
2019-04-14T20:39:19.999Z,13.80
2019-04-14T20:41:52.004Z,13.37
2019-04-14T20:44:24.300Z,13.10
2019-04-14T20:47:19.912Z,13.10
2019-04-14T20:49:52.042Z,13.83
2019-04-14T20:52:23.954Z,15.43
2019-04-14T20:54:56.076Z,14.97
2019-04-14T20:57:27.937Z,14.97
2019-04-14T21:00:01.355Z,14.17
2019-04-14T21:03:02.523Z,13.30
2019-04-14T21:06:01.021Z,12.57
2019-04-14T21:08:57.994Z,14.73
2019-04-14T21:11:34.309Z,14.77
2019-04-14T21:14:14.020Z,14.07
2019-04-14T21:16:57.963Z,14.60
2019-04-14T21:19:53.872Z,13.17
2019-04-14T21:22:39.353Z,14.30
2019-04-14T21:25:27.843Z,13.40
2019-04-14T21:28:12.295Z,13.23
2019-04-14T21:31:12.057Z,14.80
2019-04-14T21:34:03.902Z,15.33
2019-04-14T21:37:02.851Z,14.70
2019-04-14T21:39:52.223Z,16.87
2019-04-14T21:42:25.876Z,14.97
2019-04-14T21:44:59.073Z,17.33
2019-04-14T21:47:31.096Z,16.60
2019-04-14T21:50:02.988Z,15.47
2019-04-14T21:52:49.360Z,16.57
2019-04-14T21:55:21.258Z,16.90
2019-04-14T21:58:11.879Z,19.20
2019-04-14T22:01:44.971Z,15.80
2019-04-14T22:04:44.706Z,16.40
2019-04-14T22:07:41.704Z,17.27
2019-04-14T22:10:29.245Z,14.37
2019-04-14T22:13:01.785Z,17.17
2019-04-14T22:15:34.315Z,17.10
2019-04-14T22:18:07.276Z,19.43
2019-04-14T22:20:39.627Z,18.10
2019-04-14T22:23:13.558Z,16.73
2019-04-14T22:25:46.519Z,17.30
2019-04-14T22:28:18.909Z,17.57
2019-04-14T22:30:51.168Z,16.37
2019-04-14T22:33:23.450Z,17.30
2019-04-14T22:35:55.695Z,18.27
2019-04-14T22:38:27.557Z,17.27
2019-04-14T22:41:00.426Z,16.10
2019-04-14T22:43:32.628Z,18.87
2019-04-14T22:46:05.080Z,19.10
2019-04-14T22:48:39.391Z,16.40
2019-04-14T22:51:11.051Z,16.47
2019-04-14T22:53:43.545Z,17.83
2019-04-14T22:56:15.394Z,17.43
2019-04-14T22:58:47.301Z,15.83
2019-04-14T23:01:26.031Z,16.70
2019-04-14T23:04:12.149Z,17.23
2019-04-14T23:07:05.980Z,17.23
2019-04-14T23:09:48.710Z,18.13
2019-04-14T23:12:39.480Z,17.93
2019-04-14T23:15:30.208Z,16.57
2019-04-14T23:18:11.303Z,18.87
2019-04-14T23:21:01.990Z,17.23
2019-04-14T23:23:59.691Z,18.67
2019-04-14T23:26:32.556Z,19.00
2019-04-14T23:29:04.964Z,18.17
2019-04-14T23:31:37.432Z,18.63
2019-04-14T23:34:09.358Z,19.50
2019-04-14T23:36:41.290Z,19.80
2019-04-14T23:39:14.072Z,18.43
2019-04-14T23:41:46.045Z,20.33
2019-04-14T23:44:18.624Z,19.97
2019-04-14T23:46:50.556Z,19.97
2019-04-14T23:49:22.527Z,19.17
2019-04-14T23:51:54.900Z,21.47
2019-04-14T23:54:26.728Z,16.47
2019-04-14T23:57:05.193Z,18.27
2019-04-14T23:59:32.712Z,18.10
